createdAt,value
2023-03-05T09:29:00.559Z,16.30
2023-03-05T09:29:32.714Z,25.10
2023-03-05T09:30:06.069Z,21.87
2023-03-05T09:34:11.783Z,12.73
2023-03-05T09:34:43.514Z,12.67
2023-03-05T09:35:15.260Z,12.70
2023-03-05T09:35:48.835Z,12.40
2023-03-05T09:36:29.428Z,12.30
2023-03-05T09:37:01.092Z,11.43
2023-03-05T09:37:33.624Z,11.87
2023-03-05T09:38:05.411Z,12.07
2023-03-05T09:38:37.861Z,12.07
2023-03-05T09:39:09.656Z,12.17
2023-03-05T09:39:41.780Z,10.90
2023-03-05T09:40:18.004Z,14.57
2023-03-05T09:40:52.636Z,97.13
2023-03-05T09:41:37.902Z,166.47
2023-03-05T09:42:28.096Z,70.00
2023-03-05T09:43:13.222Z,87.27
2023-03-05T09:43:58.197Z,69.63
2023-03-05T09:44:44.640Z,193.53
2023-03-05T09:45:44.967Z,93.23
2023-03-05T09:46:36.859Z,43.73
2023-03-05T09:47:14.747Z,18.67
2023-03-05T09:47:54.429Z,15.47
2023-03-05T09:48:47.129Z,12.70
2023-03-05T09:49:21.935Z,12.13
2023-03-05T09:50:01.471Z,11.63
2023-03-05T09:50:38.770Z,11.67
2023-03-05T09:51:21.290Z,11.83
2023-03-05T09:52:03.536Z,11.00
2023-03-05T09:52:45.401Z,11.53
2023-03-05T09:53:39.076Z,11.67
2023-03-05T09:54:19.025Z,11.13
2023-03-05T09:54:57.202Z,11.43
2023-03-05T09:55:41.602Z,11.47
2023-03-05T09:56:22.920Z,11.20
2023-03-05T09:56:58.321Z,11.67
2023-03-05T09:57:45.690Z,12.83
2023-03-05T09:58:31.521Z,13.07
2023-03-05T09:59:12.142Z,12.67
2023-03-05T09:59:52.483Z,11.67
2023-03-05T10:00:36.271Z,11.60
2023-03-05T10:01:16.180Z,12.03
2023-03-05T10:01:52.084Z,10.83
2023-03-05T10:02:30.486Z,10.00
2023-03-05T10:03:10.212Z,10.37
2023-03-05T10:03:52.702Z,10.77
2023-03-05T10:04:40.153Z,10.27
2023-03-05T10:05:24.993Z,10.83
2023-03-05T10:06:13.719Z,9.77
2023-03-05T10:06:51.188Z,9.33
2023-03-05T10:07:28.764Z,10.00
2023-03-05T10:08:06.508Z,10.17
2023-03-05T10:09:07.663Z,9.33
2023-03-05T10:09:49.694Z,10.13
2023-03-05T10:10:27.465Z,9.30
2023-03-05T10:11:05.397Z,9.60
2023-03-05T10:11:43.311Z,9.77
2023-03-05T10:12:19.838Z,9.70
2023-03-05T10:12:57.617Z,9.13
2023-03-05T10:13:42.792Z,10.27
2023-03-05T10:14:20.517Z,10.47
2023-03-05T10:14:53.041Z,9.47
2023-03-05T10:15:52.687Z,9.23
2023-03-05T10:16:36.361Z,9.73
2023-03-05T10:17:23.406Z,9.40
2023-03-05T10:18:42.224Z,8.33
2023-03-05T10:19:32.590Z,9.40
2023-03-05T10:20:34.709Z,9.60
2023-03-05T10:21:17.252Z,10.47
2023-03-05T10:22:12.526Z,9.27
2023-03-05T10:22:58.972Z,8.30
2023-03-05T10:23:57.622Z,7.97
2023-03-05T10:25:01.678Z,8.60
2023-03-05T10:26:12.375Z,8.37
2023-03-05T10:27:02.824Z,8.43
2023-03-05T10:27:56.100Z,8.27
2023-03-05T10:28:58.227Z,8.57
2023-03-05T10:29:38.783Z,9.00
2023-03-05T10:30:25.537Z,11.17
2023-03-05T10:31:15.863Z,10.07
2023-03-05T10:31:56.797Z,9.50
2023-03-05T10:33:07.435Z,8.73
2023-03-05T10:33:44.341Z,8.70
2023-03-05T10:34:17.084Z,8.93
2023-03-05T10:35:36.407Z,8.27
2023-03-05T10:36:46.121Z,8.43
2023-03-05T10:37:32.790Z,8.50
2023-03-05T10:38:19.722Z,8.40
2023-03-05T10:39:25.082Z,7.60
2023-03-05T10:40:23.066Z,7.50
2023-03-05T10:40:56.194Z,7.93
2023-03-05T10:42:09.026Z,7.93
2023-03-05T10:43:05.304Z,8.10
2023-03-05T10:44:25.321Z,8.20
2023-03-05T10:45:00.192Z,8.27
2023-03-05T10:45:44.771Z,7.70
2023-03-05T10:46:21.251Z,8.13
2023-03-05T10:46:58.371Z,7.93
2023-03-05T10:47:38.635Z,7.40
2023-03-05T10:48:22.471Z,7.33
2023-03-05T10:49:02.770Z,7.43
2023-03-05T10:49:49.261Z,6.67
2023-03-05T10:50:25.658Z,7.60
2023-03-05T10:51:16.008Z,6.97
2023-03-05T10:52:22.699Z,6.73
2023-03-05T10:53:17.162Z,6.67
2023-03-05T10:54:01.310Z,7.40
2023-03-05T10:54:36.228Z,6.70
2023-03-05T10:55:17.814Z,6.77
2023-03-05T10:55:51.760Z,6.77
2023-03-05T10:56:35.186Z,6.87
2023-03-05T10:57:13.034Z,6.43
2023-03-05T10:57:45.770Z,6.83
2023-03-05T10:58:22.074Z,7.00
2023-03-05T10:58:56.551Z,7.33
2023-03-05T10:59:33.893Z,7.57
2023-03-05T11:00:20.435Z,6.87
2023-03-05T11:01:12.749Z,6.57
2023-03-05T11:02:03.842Z,6.43
2023-03-05T11:03:12.890Z,6.77
2023-03-05T11:03:52.624Z,5.87
2023-03-05T11:04:33.236Z,6.03
2023-03-05T11:05:07.131Z,6.53
2023-03-05T11:05:39.362Z,6.50
2023-03-05T11:06:13.245Z,7.93
2023-03-05T11:06:50.411Z,9.33
2023-03-05T11:07:24.807Z,9.07
2023-03-05T11:07:56.819Z,9.53
2023-03-05T11:08:32.957Z,8.80
2023-03-05T11:09:24.746Z,8.47
2023-03-05T11:10:19.218Z,7.83
2023-03-05T11:11:11.598Z,7.87
2023-03-05T11:11:44.169Z,8.87
2023-03-05T11:12:26.432Z,8.70
2023-03-05T11:12:58.771Z,8.73
2023-03-05T11:13:31.321Z,9.47
2023-03-05T11:14:04.054Z,9.60
2023-03-05T11:14:41.796Z,9.67
2023-03-05T11:15:13.512Z,9.87
2023-03-05T11:16:00.799Z,9.37
2023-03-05T11:16:47.548Z,9.10
2023-03-05T11:17:34.893Z,9.90
2023-03-05T11:18:18.666Z,9.90
2023-03-05T11:19:13.342Z,10.33
2023-03-05T11:19:45.604Z,10.00
2023-03-05T11:20:31.870Z,9.53
2023-03-05T11:21:28.891Z,10.13
2023-03-05T11:22:17.478Z,10.50
2023-03-05T11:23:27.199Z,10.47
2023-03-05T11:24:16.550Z,10.73
2023-03-05T11:25:16.612Z,11.13
2023-03-05T11:26:03.634Z,10.77
2023-03-05T11:26:35.645Z,10.17
2023-03-05T11:28:24.077Z,10.33
2023-03-05T11:29:08.699Z,10.50
2023-03-05T11:29:48.699Z,10.23
2023-03-05T11:30:33.398Z,10.70
2023-03-05T11:31:18.831Z,10.53
2023-03-05T11:31:53.409Z,10.57
2023-03-05T11:32:28.139Z,10.53
2023-03-05T11:33:20.895Z,10.30
2023-03-05T11:33:58.457Z,10.87
2023-03-05T11:34:35.813Z,11.67
2023-03-05T11:35:33.211Z,11.63
2023-03-05T11:36:26.737Z,11.83
2023-03-05T11:36:58.835Z,11.00
2023-03-05T11:37:33.003Z,11.43
2023-03-05T11:38:07.666Z,10.87
2023-03-05T11:38:51.732Z,11.17
2023-03-05T11:39:26.590Z,11.43
2023-03-05T11:40:10.989Z,11.70
2023-03-05T11:40:44.774Z,10.03
2023-03-05T11:41:29.535Z,10.73
2023-03-05T11:42:24.820Z,10.20
2023-03-05T11:43:03.149Z,10.60
2023-03-05T11:43:37.816Z,10.03
2023-03-05T11:44:24.612Z,10.37
2023-03-05T11:44:57.873Z,10.10
2023-03-05T11:45:32.566Z,10.67
2023-03-05T11:46:05.718Z,10.37
2023-03-05T11:46:43.719Z,10.33
2023-03-05T11:47:42.919Z,10.20
2023-03-05T11:48:28.703Z,10.87
2023-03-05T11:49:03.829Z,11.57
2023-03-05T11:49:46.880Z,10.73
2023-03-05T11:50:29.522Z,10.00
2023-03-05T11:51:08.287Z,10.57
2023-03-05T11:52:15.759Z,10.93
2023-03-05T11:52:50.372Z,10.10
2023-03-05T11:53:29.266Z,10.40
2023-03-05T11:54:09.659Z,10.60
2023-03-05T11:55:02.767Z,10.67
2023-03-05T11:55:52.603Z,10.50
2023-03-05T11:56:28.178Z,9.73
2023-03-05T11:57:02.828Z,10.20
2023-03-05T11:58:22.872Z,10.63
2023-03-05T11:59:19.718Z,9.83
2023-03-05T11:59:55.803Z,10.20
2023-03-05T12:00:31.507Z,9.37
2023-03-05T12:01:07.753Z,10.20
2023-03-05T12:01:50.074Z,10.80
2023-03-05T12:02:28.050Z,11.27
2023-03-05T12:03:05.315Z,10.53
2023-03-05T12:03:39.130Z,10.13
2023-03-05T12:04:14.585Z,10.17
2023-03-05T12:04:49.677Z,10.23
2023-03-05T12:05:25.167Z,11.03
2023-03-05T12:06:10.490Z,10.43
2023-03-05T12:06:57.651Z,10.30
2023-03-05T12:07:41.482Z,10.27
2023-03-05T12:08:21.916Z,10.20
2023-03-05T12:09:01.953Z,11.20
2023-03-05T12:09:42.739Z,10.00
2023-03-05T12:10:24.985Z,10.10
2023-03-05T12:11:06.136Z,10.47
2023-03-05T12:11:38.577Z,10.03
2023-03-05T12:12:25.534Z,10.00
2023-03-05T12:13:03.192Z,10.03
2023-03-05T12:13:43.294Z,10.33
2023-03-05T12:14:39.557Z,10.63
2023-03-05T12:15:35.288Z,10.27
2023-03-05T12:16:35.045Z,9.97
2023-03-05T12:17:29.747Z,10.10
2023-03-05T12:18:13.907Z,9.83
2023-03-05T12:18:54.632Z,9.57
2023-03-05T12:19:42.747Z,9.80
2023-03-05T12:20:19.110Z,9.80
2023-03-05T12:21:06.618Z,9.70
2023-03-05T12:21:44.644Z,9.13
2023-03-05T12:22:28.573Z,9.93
2023-03-05T12:23:00.626Z,10.10
2023-03-05T12:23:47.277Z,9.37
2023-03-05T12:24:28.022Z,9.13
2023-03-05T12:25:18.774Z,9.10
2023-03-05T12:25:59.852Z,10.10
2023-03-05T12:26:53.463Z,9.27
2023-03-05T12:27:37.145Z,9.77
2023-03-05T12:28:39.633Z,8.93
2023-03-05T12:29:30.981Z,9.83
2023-03-05T12:30:05.255Z,10.27
2023-03-05T12:30:37.274Z,9.37
2023-03-05T12:31:10.638Z,9.63
2023-03-05T12:31:45.557Z,9.73
2023-03-05T12:32:25.711Z,9.80
2023-03-05T12:32:59.605Z,9.87
2023-03-05T12:33:45.120Z,8.83
2023-03-05T12:35:04.405Z,10.10
2023-03-05T12:35:39.629Z,10.17
2023-03-05T12:36:17.350Z,9.57
2023-03-05T12:36:49.165Z,9.80
2023-03-05T12:37:28.587Z,9.67
2023-03-05T12:38:13.461Z,9.50
2023-03-05T12:38:57.778Z,9.80
2023-03-05T12:39:51.504Z,9.90
2023-03-05T12:40:30.671Z,10.43
2023-03-05T12:41:27.980Z,10.37
2023-03-05T12:42:01.320Z,10.10
2023-03-05T12:42:35.904Z,10.67
2023-03-05T12:43:30.545Z,10.17
2023-03-05T12:44:08.708Z,10.17
2023-03-05T12:44:40.541Z,10.20
2023-03-05T12:45:13.118Z,10.00
2023-03-05T12:45:45.620Z,9.87
2023-03-05T12:46:29.827Z,10.17
2023-03-05T12:47:23.860Z,9.67
2023-03-05T12:47:55.846Z,9.63
2023-03-05T12:48:28.012Z,9.37
2023-03-05T12:48:59.790Z,10.00
2023-03-05T12:49:44.800Z,9.87
2023-03-05T12:50:28.798Z,10.00
2023-03-05T12:51:01.865Z,10.20
2023-03-05T12:51:37.960Z,10.27
2023-03-05T12:52:24.183Z,9.47
2023-03-05T12:53:08.992Z,10.47
2023-03-05T12:53:41.079Z,9.03
2023-03-05T12:54:41.280Z,9.50
2023-03-05T12:55:20.464Z,9.60
2023-03-05T12:56:01.606Z,9.70
2023-03-05T12:56:37.145Z,9.70
2023-03-05T12:57:41.389Z,9.43
2023-03-05T12:58:45.236Z,9.70
2023-03-05T12:59:22.318Z,9.97
2023-03-05T13:00:16.022Z,10.07
2023-03-05T13:00:51.402Z,9.80
2023-03-05T13:01:41.336Z,9.37
2023-03-05T13:02:36.560Z,10.43
2023-03-05T13:03:16.985Z,10.27
2023-03-05T13:04:05.340Z,9.97
2023-03-05T13:04:47.308Z,10.17
2023-03-05T13:05:29.316Z,10.40
2023-03-05T13:06:04.156Z,10.43
2023-03-05T13:06:37.034Z,9.87
2023-03-05T13:07:16.569Z,9.13
2023-03-05T13:07:50.192Z,9.87
2023-03-05T13:08:31.776Z,9.57
2023-03-05T13:09:23.552Z,11.70
2023-03-05T13:09:58.035Z,12.00
2023-03-05T13:10:30.720Z,10.63
2023-03-05T13:11:06.726Z,10.20
2023-03-05T13:11:39.702Z,9.80
2023-03-05T13:12:14.450Z,10.37
2023-03-05T13:12:59.670Z,9.27
2023-03-05T13:13:53.911Z,9.63
2023-03-05T13:14:44.065Z,9.30
2023-03-05T13:15:16.955Z,9.60
2023-03-05T13:15:52.858Z,9.33
2023-03-05T13:16:33.022Z,9.43
2023-03-05T13:17:33.070Z,9.17
2023-03-05T13:18:09.148Z,9.17
2023-03-05T13:18:45.922Z,9.50
2023-03-05T13:19:19.607Z,9.27
2023-03-05T13:19:52.863Z,9.90
2023-03-05T13:20:27.730Z,9.63
2023-03-05T13:21:13.509Z,9.90
2023-03-05T13:21:45.852Z,8.90
2023-03-05T13:22:19.889Z,9.37
2023-03-05T13:23:05.577Z,9.63
2023-03-05T13:23:38.441Z,9.20
2023-03-05T13:24:19.068Z,9.10
2023-03-05T13:25:15.819Z,8.70
2023-03-05T13:26:02.015Z,9.77
2023-03-05T13:26:42.182Z,8.63
2023-03-05T13:27:33.626Z,8.90
2023-03-05T13:28:13.090Z,9.13
2023-03-05T13:29:05.726Z,9.53
2023-03-05T13:29:52.294Z,9.77
2023-03-05T13:30:29.037Z,9.13
2023-03-05T13:31:12.865Z,9.13
2023-03-05T13:31:48.740Z,8.87
2023-03-05T13:32:33.496Z,8.90
2023-03-05T13:33:06.661Z,9.20
2023-03-05T13:33:38.856Z,9.13
2023-03-05T13:34:29.850Z,9.33
2023-03-05T13:35:14.706Z,9.27
2023-03-05T13:35:51.891Z,9.57
2023-03-05T13:36:27.088Z,8.97
2023-03-05T13:37:08.200Z,9.17
2023-03-05T13:37:41.089Z,8.63
2023-03-05T13:38:41.071Z,9.07
2023-03-05T13:39:23.353Z,8.83
2023-03-05T13:40:02.128Z,8.70
2023-03-05T13:40:35.266Z,9.13
2023-03-05T13:41:16.909Z,9.23
2023-03-05T13:42:02.671Z,9.53
2023-03-05T13:42:36.963Z,9.03
2023-03-05T13:43:12.646Z,9.17
2023-03-05T13:43:57.715Z,8.97
2023-03-05T13:44:32.812Z,8.87
2023-03-05T13:45:25.451Z,9.23
2023-03-05T13:45:58.846Z,9.10
2023-03-05T13:46:40.326Z,9.00
2023-03-05T13:47:21.598Z,8.87
2023-03-05T13:48:04.982Z,9.47
2023-03-05T13:48:37.614Z,9.60
2023-03-05T13:49:22.407Z,9.27
2023-03-05T13:50:24.910Z,8.83
2023-03-05T13:50:59.690Z,9.37
2023-03-05T13:51:50.854Z,9.80
2023-03-05T13:52:28.859Z,9.20
2023-03-05T13:53:24.183Z,10.20
2023-03-05T13:53:56.692Z,9.70
2023-03-05T13:54:30.012Z,8.97
2023-03-05T13:55:12.233Z,9.67
2023-03-05T13:55:44.636Z,9.23
2023-03-05T13:56:23.548Z,9.53
2023-03-05T13:57:06.174Z,8.67
2023-03-05T13:57:44.750Z,8.83
2023-03-05T13:58:49.190Z,8.10
2023-03-05T13:59:23.815Z,9.60
2023-03-05T13:59:56.394Z,9.17
2023-03-05T14:00:42.698Z,9.57
2023-03-05T14:01:37.102Z,9.20
2023-03-05T14:02:19.707Z,8.67
2023-03-05T14:02:53.595Z,9.03
2023-03-05T14:03:29.493Z,16.13
2023-03-05T14:04:23.673Z,35.57
2023-03-05T14:04:57.654Z,41.43
2023-03-05T14:05:32.048Z,23.03
2023-03-05T14:06:15.555Z,33.07
2023-03-05T14:07:05.433Z,32.13
2023-03-05T14:07:43.940Z,58.43
2023-03-05T14:08:25.895Z,58.67
2023-03-05T14:09:06.839Z,111.83
2023-03-05T14:09:39.264Z,32.83
2023-03-05T14:10:42.229Z,20.47
2023-03-05T14:11:20.410Z,15.57
2023-03-05T14:11:58.934Z,10.10
2023-03-05T14:12:38.785Z,9.17
2023-03-05T14:13:32.644Z,8.57
2023-03-05T14:14:17.875Z,9.30
2023-03-05T14:14:51.218Z,9.20
2023-03-05T14:15:38.143Z,9.33
2023-03-05T14:16:13.931Z,9.67
2023-03-05T14:16:47.168Z,9.60
2023-03-05T14:17:28.764Z,9.40
2023-03-05T14:18:21.204Z,9.83
2023-03-05T14:19:02.144Z,9.87
2023-03-05T14:19:39.749Z,10.10
2023-03-05T14:20:12.396Z,9.70
2023-03-05T14:21:10.553Z,10.30
2023-03-05T14:21:49.254Z,9.97
2023-03-05T14:22:34.408Z,10.57
2023-03-05T14:23:45.532Z,9.93
2023-03-05T14:24:28.836Z,9.20
2023-03-05T14:25:01.235Z,9.17
2023-03-05T14:25:40.771Z,9.87
2023-03-05T14:26:22.161Z,9.87
2023-03-05T14:27:13.768Z,10.03
2023-03-05T14:27:48.064Z,9.33
2023-03-05T14:28:23.059Z,9.53
2023-03-05T14:29:00.831Z,9.87
2023-03-05T14:29:34.260Z,9.37
2023-03-05T14:30:17.688Z,9.30
2023-03-05T14:30:54.810Z,9.40
2023-03-05T14:31:30.755Z,10.73
2023-03-05T14:32:27.424Z,10.03
2023-03-05T14:33:01.784Z,9.53
2023-03-05T14:33:34.582Z,10.47
2023-03-05T14:34:08.621Z,10.77
2023-03-05T14:34:51.522Z,9.90
2023-03-05T14:35:28.695Z,9.57
2023-03-05T14:36:03.754Z,10.47
2023-03-05T14:36:36.991Z,9.63
2023-03-05T14:37:30.407Z,10.10
2023-03-05T14:38:04.097Z,10.00
2023-03-05T14:38:44.626Z,9.50
2023-03-05T14:39:44.575Z,10.13
2023-03-05T14:40:24.497Z,10.13
2023-03-05T14:40:59.429Z,10.30
2023-03-05T14:41:42.584Z,9.87
2023-03-05T14:42:35.231Z,9.60
2023-03-05T14:43:12.888Z,10.27
2023-03-05T14:43:45.387Z,9.43
2023-03-05T14:44:20.444Z,9.23
2023-03-05T14:44:53.436Z,9.67
2023-03-05T14:45:33.530Z,9.83
2023-03-05T14:46:07.849Z,9.67
2023-03-05T14:46:41.237Z,9.80
2023-03-05T14:47:14.572Z,10.17
2023-03-05T14:47:48.319Z,10.03
2023-03-05T14:48:23.993Z,9.80
2023-03-05T14:48:56.640Z,9.57
2023-03-05T14:49:29.110Z,9.47
2023-03-05T14:50:01.651Z,10.40
2023-03-05T14:50:39.977Z,10.07
2023-03-05T14:51:12.541Z,10.50
2023-03-05T14:51:47.449Z,14.23
2023-03-05T14:52:24.553Z,14.70
2023-03-05T14:53:00.532Z,23.10
2023-03-05T14:53:46.928Z,51.73
2023-03-05T14:54:26.630Z,39.10
2023-03-05T14:54:58.631Z,21.10
2023-03-05T14:55:34.323Z,18.40
2023-03-05T14:56:28.600Z,41.80
2023-03-05T14:57:01.950Z,70.63
2023-03-05T14:57:35.929Z,83.40
2023-03-05T14:58:18.233Z,55.60
2023-03-05T14:58:50.992Z,18.43
2023-03-05T14:59:23.668Z,14.77
2023-03-05T14:59:58.654Z,12.10
2023-03-05T15:00:34.250Z,10.57
2023-03-05T15:01:08.146Z,10.60
2023-03-05T15:01:40.995Z,10.27
2023-03-05T15:02:19.181Z,10.10
2023-03-05T15:02:52.747Z,10.23
2023-03-05T15:03:25.766Z,10.17
2023-03-05T15:03:58.431Z,10.17
2023-03-05T15:04:32.913Z,9.50
2023-03-05T15:05:05.931Z,8.97
2023-03-05T15:05:39.759Z,10.20
2023-03-05T15:06:25.592Z,10.07
2023-03-05T15:06:59.471Z,9.43
2023-03-05T15:07:33.388Z,10.30
2023-03-05T15:08:08.542Z,9.53
2023-03-05T15:08:41.595Z,9.67
2023-03-05T15:09:18.758Z,9.47
2023-03-05T15:09:51.379Z,10.07
2023-03-05T15:10:25.886Z,10.13
2023-03-05T15:11:01.385Z,9.63
2023-03-05T15:11:37.580Z,9.03
2023-03-05T15:12:14.330Z,8.73
2023-03-05T15:12:50.930Z,9.80
2023-03-05T15:13:27.855Z,9.60
2023-03-05T15:14:01.178Z,9.13
2023-03-05T15:14:33.839Z,8.93
2023-03-05T15:15:07.843Z,9.20
2023-03-05T15:15:45.480Z,8.97
2023-03-05T15:16:21.517Z,9.20
2023-03-05T15:16:55.863Z,8.87
2023-03-05T15:17:38.139Z,8.80
2023-03-05T15:18:16.321Z,9.40
2023-03-05T15:18:50.747Z,8.53
2023-03-05T15:19:22.985Z,8.47
2023-03-05T15:19:55.964Z,8.70
2023-03-05T15:20:30.902Z,9.20
2023-03-05T15:21:03.152Z,8.73
2023-03-05T15:21:37.208Z,9.03
2023-03-05T15:22:15.303Z,8.73
2023-03-05T15:22:48.508Z,8.50
2023-03-05T15:23:21.715Z,8.37
2023-03-05T15:23:55.939Z,8.30
2023-03-05T15:24:28.252Z,8.53
2023-03-05T15:25:01.125Z,8.47
2023-03-05T15:25:34.868Z,8.90
2023-03-05T15:26:10.255Z,9.00
2023-03-05T15:26:45.942Z,9.40
2023-03-05T15:27:20.957Z,9.73
2023-03-05T15:27:53.934Z,11.37
2023-03-05T15:28:26.690Z,15.13
2023-03-05T15:28:59.407Z,10.30
2023-03-05T15:29:33.525Z,9.40
2023-03-05T15:30:08.335Z,10.27
2023-03-05T15:30:45.170Z,9.60
2023-03-05T15:31:18.997Z,9.07
2023-03-05T15:31:53.991Z,9.03
2023-03-05T15:32:31.317Z,9.40
2023-03-05T15:33:11.325Z,8.93
2023-03-05T15:33:46.187Z,9.77
2023-03-05T15:34:21.915Z,14.43
2023-03-05T15:34:54.886Z,12.30
2023-03-05T15:35:30.578Z,12.63
2023-03-05T15:36:03.372Z,16.40
2023-03-05T15:36:36.483Z,14.60
2023-03-05T15:37:10.476Z,12.83
2023-03-05T15:37:42.437Z,12.07
2023-03-05T15:38:15.356Z,12.17
2023-03-05T15:38:49.735Z,17.67
2023-03-05T15:39:27.029Z,63.57
2023-03-05T15:40:00.029Z,70.63
2023-03-05T15:40:33.070Z,58.30
2023-03-05T15:41:06.637Z,173.77
2023-03-05T15:41:39.588Z,37.37
2023-03-05T15:42:12.870Z,44.37
2023-03-05T15:42:46.326Z,49.00
2023-03-05T15:43:20.587Z,122.93
2023-03-05T15:43:54.180Z,104.87
2023-03-05T15:44:28.796Z,198.10
2023-03-05T15:45:01.221Z,136.80
2023-03-05T15:45:34.348Z,102.47
2023-03-05T15:46:08.142Z,17.57
2023-03-05T15:46:41.560Z,75.87
2023-03-05T15:47:14.489Z,101.63
2023-03-05T15:47:51.170Z,90.63
2023-03-05T15:48:28.873Z,49.80
2023-03-05T15:49:03.233Z,18.07
2023-03-05T15:49:36.125Z,26.17
2023-03-05T15:50:12.254Z,12.97
2023-03-05T15:50:46.009Z,11.87
2023-03-05T15:51:23.362Z,10.37
2023-03-05T15:51:59.223Z,10.33
2023-03-05T15:52:35.439Z,9.63
2023-03-05T15:53:09.777Z,9.50
2023-03-05T15:53:42.338Z,9.70
2023-03-05T15:54:15.036Z,9.03
2023-03-05T15:54:48.472Z,9.07
2023-03-05T15:55:21.649Z,9.47
2023-03-05T15:55:54.307Z,9.20
2023-03-05T15:56:27.228Z,9.27
2023-03-05T15:56:59.555Z,9.57
2023-03-05T15:57:40.992Z,9.27
2023-03-05T15:58:19.042Z,8.67
2023-03-05T15:58:54.154Z,8.50
2023-03-05T15:59:28.523Z,9.70
2023-03-05T16:00:07.640Z,8.93
2023-03-05T16:00:40.987Z,18.17
2023-03-05T16:01:14.276Z,17.33
2023-03-05T16:01:51.928Z,13.77
2023-03-05T16:02:26.705Z,11.13
2023-03-05T16:02:59.406Z,9.67
2023-03-05T16:03:33.611Z,9.63
2023-03-05T16:04:07.666Z,9.47
2023-03-05T16:04:39.826Z,9.57
2023-03-05T16:05:13.633Z,9.47
2023-03-05T16:05:46.550Z,9.00
2023-03-05T16:06:24.543Z,9.03
2023-03-05T16:07:03.720Z,9.10
2023-03-05T16:07:39.745Z,9.37
2023-03-05T16:08:13.422Z,8.97
2023-03-05T16:08:48.216Z,8.87
2023-03-05T16:09:24.980Z,9.73
2023-03-05T16:10:00.251Z,8.40
2023-03-05T16:10:39.262Z,8.50
2023-03-05T16:11:14.109Z,8.53
2023-03-05T16:11:49.804Z,8.33
2023-03-05T16:12:28.977Z,8.40
2023-03-05T16:13:12.696Z,8.73
2023-03-05T16:13:49.408Z,7.70
2023-03-05T16:14:28.959Z,8.30
2023-03-05T16:15:03.491Z,9.63
2023-03-05T16:15:36.607Z,8.47
2023-03-05T16:16:12.045Z,8.90
2023-03-05T16:16:45.571Z,8.53
2023-03-05T16:17:22.055Z,9.33
2023-03-05T16:18:00.830Z,9.53
2023-03-05T16:18:43.392Z,11.07
2023-03-05T16:19:19.328Z,9.83
2023-03-05T16:19:56.931Z,11.00
2023-03-05T16:20:29.264Z,11.97
2023-03-05T16:21:03.724Z,10.87
2023-03-05T16:21:37.674Z,10.97
2023-03-05T16:22:10.407Z,10.30
2023-03-05T16:22:45.121Z,10.97
2023-03-05T16:23:18.402Z,9.77
2023-03-05T16:23:54.187Z,10.57
2023-03-05T16:24:26.649Z,10.83
2023-03-05T16:25:02.020Z,10.40
2023-03-05T16:25:35.743Z,10.60
2023-03-05T16:26:11.173Z,10.20
2023-03-05T16:26:45.203Z,14.00
2023-03-05T16:27:17.891Z,10.57
2023-03-05T16:27:57.289Z,10.17
2023-03-05T16:28:31.411Z,10.03
2023-03-05T16:29:05.478Z,11.40
2023-03-05T16:29:40.063Z,9.80
2023-03-05T16:30:17.746Z,9.47
2023-03-05T16:30:58.483Z,10.17
2023-03-05T16:31:58.420Z,9.07
2023-03-05T16:32:31.246Z,10.10
2023-03-05T16:33:04.255Z,9.77
2023-03-05T16:33:39.794Z,10.10
2023-03-05T16:34:25.442Z,10.00
2023-03-05T16:35:02.405Z,9.67
2023-03-05T16:35:35.628Z,9.37
2023-03-05T16:36:29.436Z,9.20
2023-03-05T16:37:06.975Z,8.87
2023-03-05T16:37:41.837Z,9.50
2023-03-05T16:38:16.459Z,9.13
2023-03-05T16:38:51.345Z,9.97
2023-03-05T16:39:25.599Z,10.00
2023-03-05T16:40:10.083Z,11.90
2023-03-05T16:41:05.932Z,38.27
2023-03-05T16:41:41.526Z,118.60
2023-03-05T16:42:14.002Z,139.57
2023-03-05T16:42:47.904Z,166.97
2023-03-05T16:43:23.370Z,223.53
2023-03-05T16:43:58.629Z,61.40
2023-03-05T16:44:31.552Z,125.07
2023-03-05T16:45:05.644Z,166.37
2023-03-05T16:45:39.941Z,95.57
2023-03-05T16:46:14.338Z,192.73
2023-03-05T16:46:53.397Z,120.13
2023-03-05T16:47:26.336Z,119.93
2023-03-05T16:47:59.235Z,75.13
2023-03-05T16:48:31.224Z,48.83
2023-03-05T16:49:05.021Z,44.93
2023-03-05T16:49:37.952Z,25.33
2023-03-05T16:50:12.790Z,17.63
2023-03-05T16:50:45.487Z,16.30
2023-03-05T16:51:19.961Z,13.57
2023-03-05T16:51:54.045Z,12.30
2023-03-05T16:52:28.146Z,13.97
2023-03-05T16:53:00.331Z,12.97
2023-03-05T16:53:33.849Z,12.00
2023-03-05T16:54:07.412Z,11.43
2023-03-05T16:54:41.642Z,10.77
2023-03-05T16:55:16.932Z,11.30
2023-03-05T16:55:52.221Z,10.40
2023-03-05T16:56:24.994Z,11.70
2023-03-05T16:57:35.678Z,11.13
2023-03-05T16:58:08.555Z,11.00
2023-03-05T16:58:41.317Z,10.37
2023-03-05T16:59:14.195Z,10.80
2023-03-05T16:59:47.041Z,10.90
2023-03-05T17:00:23.971Z,10.43
2023-03-05T17:00:59.303Z,10.83
2023-03-05T17:01:32.003Z,11.13
2023-03-05T17:02:04.979Z,11.33
2023-03-05T17:02:37.988Z,10.47
2023-03-05T17:03:11.303Z,10.53
2023-03-05T17:03:45.546Z,10.40
2023-03-05T17:04:19.581Z,10.43
2023-03-05T17:04:53.557Z,10.17
2023-03-05T17:05:30.614Z,11.53
2023-03-05T17:06:09.273Z,10.77
2023-03-05T17:06:41.906Z,10.90
2023-03-05T17:07:19.061Z,12.33
2023-03-05T17:07:52.233Z,12.60
2023-03-05T17:08:25.980Z,13.67
2023-03-05T17:08:59.823Z,14.47
2023-03-05T17:09:33.345Z,27.10
2023-03-05T17:10:07.702Z,17.33
2023-03-05T17:10:42.505Z,17.10
2023-03-05T17:11:28.921Z,17.00
2023-03-05T17:12:01.920Z,14.33
2023-03-05T17:12:34.516Z,13.73
2023-03-05T17:13:08.554Z,13.43
2023-03-05T17:13:43.700Z,13.83
2023-03-05T17:14:16.704Z,14.83
2023-03-05T17:14:49.453Z,15.07
2023-03-05T17:15:22.228Z,14.57
2023-03-05T17:15:57.109Z,14.47
2023-03-05T17:16:30.934Z,17.83
2023-03-05T17:17:04.335Z,19.10
2023-03-05T17:17:39.131Z,19.23
2023-03-05T17:18:12.479Z,18.67
2023-03-05T17:18:45.597Z,18.10
2023-03-05T17:19:18.259Z,17.90
2023-03-05T17:19:52.084Z,17.87
2023-03-05T17:20:24.881Z,20.50
2023-03-05T17:20:58.531Z,21.43
2023-03-05T17:21:32.392Z,21.23
2023-03-05T17:22:05.535Z,21.13
2023-03-05T17:22:39.642Z,19.33
2023-03-05T17:23:12.245Z,17.03
2023-03-05T17:23:46.679Z,17.60
2023-03-05T17:24:22.230Z,18.23
2023-03-05T17:24:55.438Z,17.50
2023-03-05T17:25:28.341Z,16.97
2023-03-05T17:26:05.466Z,16.73
2023-03-05T17:26:48.658Z,16.73
2023-03-05T17:27:23.866Z,16.97
2023-03-05T17:27:56.792Z,17.40
2023-03-05T17:28:29.597Z,17.03
2023-03-05T17:29:07.404Z,17.67
2023-03-05T17:29:40.479Z,16.50
2023-03-05T17:30:14.308Z,16.63
2023-03-05T17:30:50.617Z,17.17
2023-03-05T17:31:25.918Z,18.13
2023-03-05T17:31:58.447Z,18.20
2023-03-05T17:32:31.249Z,19.00
2023-03-05T17:33:08.093Z,18.37
2023-03-05T17:33:45.677Z,17.33
2023-03-05T17:34:23.450Z,18.73
2023-03-05T17:35:00.657Z,18.53
2023-03-05T17:35:36.023Z,18.57
2023-03-05T17:36:23.134Z,18.10
2023-03-05T17:36:55.980Z,18.73
2023-03-05T17:37:28.160Z,19.43
2023-03-05T17:38:08.971Z,19.63
2023-03-05T17:38:45.225Z,19.77
2023-03-05T17:39:21.593Z,19.93
2023-03-05T17:39:55.023Z,18.50
2023-03-05T17:40:27.978Z,18.77
2023-03-05T17:41:04.242Z,19.77
2023-03-05T17:41:37.128Z,20.20
2023-03-05T17:42:17.338Z,19.70
2023-03-05T17:42:49.863Z,70.57
2023-03-05T17:43:25.655Z,28.73
2023-03-05T17:43:59.928Z,27.40
2023-03-05T17:44:33.477Z,22.70
2023-03-05T17:45:07.825Z,21.47
2023-03-05T17:45:40.833Z,18.93
2023-03-05T17:46:14.599Z,19.67
2023-03-05T17:46:49.147Z,19.57
2023-03-05T17:47:23.217Z,41.80
2023-03-05T17:47:58.811Z,33.43
2023-03-05T17:48:33.919Z,24.87
2023-03-05T17:49:06.520Z,23.83
2023-03-05T17:49:39.324Z,22.57
2023-03-05T17:50:14.877Z,19.97
2023-03-05T17:50:49.039Z,18.50
2023-03-05T17:51:22.658Z,19.13
2023-03-05T17:51:55.735Z,17.47
2023-03-05T17:52:28.539Z,16.63
2023-03-05T17:53:00.946Z,16.67
2023-03-05T17:53:33.984Z,16.23
2023-03-05T17:54:07.283Z,16.10
2023-03-05T17:54:40.151Z,16.00
2023-03-05T17:55:15.583Z,15.67
2023-03-05T17:55:48.881Z,17.67
2023-03-05T17:56:23.395Z,103.33
2023-03-05T17:56:57.252Z,88.47
2023-03-05T17:57:30.254Z,77.13
2023-03-05T17:58:03.355Z,103.60
2023-03-05T17:58:40.172Z,93.73
2023-03-05T17:59:13.272Z,150.80
2023-03-05T17:59:46.222Z,102.23
2023-03-05T18:00:23.840Z,210.00
2023-03-05T18:00:56.873Z,203.97
2023-03-05T18:01:33.703Z,193.90
2023-03-05T18:02:06.557Z,86.83
2023-03-05T18:02:40.478Z,52.13
2023-03-05T18:03:12.954Z,43.63
2023-03-05T18:03:45.810Z,37.13
2023-03-05T18:04:20.044Z,51.83
2023-03-05T18:04:53.177Z,44.57
2023-03-05T18:05:28.806Z,38.37
2023-03-05T18:06:02.123Z,30.20
2023-03-05T18:06:35.017Z,27.93
2023-03-05T18:07:10.521Z,25.93
2023-03-05T18:07:46.258Z,22.30
2023-03-05T18:08:20.466Z,22.10